createdAt,value
2022-09-22T00:04:18.348Z,8.40
2022-09-22T00:09:21.334Z,7.47
2022-09-22T00:14:28.317Z,7.28
2022-09-22T00:24:33.553Z,7.32
2022-09-22T00:29:35.209Z,6.80
2022-09-22T00:34:36.789Z,6.30
2022-09-22T00:39:38.352Z,7.30
2022-09-22T00:44:44.277Z,8.57
2022-09-22T00:50:14.216Z,7.85
2022-09-22T00:55:24.740Z,8.25
2022-09-22T01:00:26.478Z,6.88
2022-09-22T01:05:30.273Z,7.95
2022-09-22T01:10:32.110Z,7.47
2022-09-22T01:15:47.178Z,7.35
2022-09-22T01:20:54.790Z,6.57
2022-09-22T01:26:17.872Z,8.35
2022-09-22T01:31:43.688Z,6.50
2022-09-22T01:37:07.405Z,4.95
2022-09-22T01:42:15.311Z,6.93
2022-09-22T01:47:24.317Z,7.47
2022-09-22T01:52:29.645Z,8.57
2022-09-22T01:57:40.015Z,7.95
2022-09-22T02:02:53.035Z,6.88
2022-09-22T02:07:57.063Z,7.65
2022-09-22T02:13:00.569Z,7.28
2022-09-22T02:18:09.371Z,7.70
2022-09-22T02:23:10.930Z,7.97
2022-09-22T02:28:18.105Z,7.15
2022-09-22T02:33:23.622Z,7.28
2022-09-22T02:38:59.860Z,8.48
2022-09-22T02:44:13.427Z,7.43
2022-09-22T02:49:18.323Z,6.90
2022-09-22T02:54:20.955Z,7.95
2022-09-22T02:59:22.540Z,8.20
2022-09-22T03:04:24.480Z,9.73
2022-09-22T03:09:26.320Z,8.30
2022-09-22T03:14:27.890Z,8.02
2022-09-22T03:19:29.496Z,7.50
2022-09-22T03:24:31.426Z,8.02
2022-09-22T03:29:33.098Z,8.57
2022-09-22T03:34:34.670Z,8.50
2022-09-22T03:39:36.232Z,8.55
2022-09-22T03:44:37.792Z,8.02
2022-09-22T03:49:39.310Z,8.02
2022-09-22T03:54:40.842Z,9.23
2022-09-22T03:59:42.588Z,8.15
2022-09-22T04:04:44.409Z,9.55
2022-09-22T04:09:46.018Z,9.93
2022-09-22T04:14:47.531Z,8.10
2022-09-22T04:19:49.664Z,9.52
2022-09-22T04:24:51.378Z,10.00
2022-09-22T04:29:53.010Z,8.65
2022-09-22T04:34:54.643Z,8.68
2022-09-22T04:39:56.347Z,8.55
2022-09-22T04:45:01.953Z,9.52
2022-09-22T04:50:03.810Z,8.30
2022-09-22T04:55:05.913Z,9.07
2022-09-22T05:00:08.286Z,9.73
2022-09-22T05:05:10.268Z,11.85
2022-09-22T05:10:17.918Z,15.30
2022-09-22T05:15:20.712Z,11.95
2022-09-22T05:20:22.441Z,13.35
2022-09-22T05:25:24.160Z,12.50
2022-09-22T05:30:26.879Z,12.45
2022-09-22T05:35:30.819Z,10.15
2022-09-22T05:40:36.051Z,11.50
2022-09-22T05:45:37.708Z,9.82
2022-09-22T05:50:39.416Z,8.75
2022-09-22T05:55:41.634Z,11.68
2022-09-22T06:00:43.384Z,12.93
2022-09-22T06:05:45.722Z,12.02
2022-09-22T06:10:49.053Z,12.63
2022-09-22T06:15:50.705Z,11.63
2022-09-22T06:20:56.056Z,12.77
2022-09-22T06:25:59.260Z,12.23
2022-09-22T06:31:01.170Z,10.40
2022-09-22T06:36:02.842Z,11.10
2022-09-22T06:41:06.889Z,9.77
2022-09-22T06:46:10.969Z,9.75
2022-09-22T06:51:14.189Z,9.10
2022-09-22T06:56:17.228Z,10.27
2022-09-22T07:01:19.673Z,10.18
2022-09-22T07:06:22.459Z,11.07
2022-09-22T07:11:24.054Z,12.30
2022-09-22T07:16:26.784Z,12.25
2022-09-22T07:21:37.614Z,12.20
2022-09-22T07:26:39.796Z,11.30
2022-09-22T07:31:42.016Z,10.23
2022-09-22T07:36:44.134Z,9.95
2022-09-22T07:41:46.834Z,10.52
2022-09-22T07:46:48.692Z,10.63
2022-09-22T07:51:54.995Z,10.00
2022-09-22T07:56:58.924Z,11.52
2022-09-22T08:02:01.267Z,11.02
2022-09-22T08:07:02.928Z,11.25
2022-09-22T08:12:04.576Z,10.65
2022-09-22T08:17:06.927Z,10.32
2022-09-22T08:22:10.903Z,10.75
2022-09-22T08:27:12.719Z,9.85
2022-09-22T08:32:19.260Z,10.40
2022-09-22T08:37:23.217Z,10.93
2022-09-22T08:42:28.452Z,8.77
2022-09-22T08:48:02.726Z,7.13
2022-09-22T08:53:10.028Z,6.55
2022-09-22T08:58:34.394Z,5.07
2022-09-22T09:03:46.294Z,3.20
2022-09-22T09:08:50.956Z,2.85
2022-09-22T09:13:58.729Z,3.92
2022-09-22T09:19:33.845Z,4.70
2022-09-22T09:30:17.951Z,4.03
2022-09-22T09:35:29.598Z,3.28
2022-09-22T09:40:31.249Z,3.05
2022-09-22T09:45:51.692Z,3.80
2022-09-22T09:50:53.282Z,3.70
2022-09-22T09:55:54.819Z,3.08
2022-09-22T10:00:59.349Z,3.33
2022-09-22T10:06:09.296Z,3.22
2022-09-22T10:11:14.954Z,2.80
2022-09-22T10:16:26.273Z,2.67
2022-09-22T10:21:28.282Z,2.88
2022-09-22T10:26:32.158Z,2.60
2022-09-22T10:31:37.842Z,1.60
2022-09-22T10:36:45.100Z,1.50
2022-09-22T10:41:48.593Z,1.40
2022-09-22T10:47:16.911Z,1.00
2022-09-22T10:52:43.370Z,1.23
2022-09-22T10:57:56.236Z,1.40
2022-09-22T11:03:28.467Z,1.50
2022-09-22T11:09:01.775Z,1.10
2022-09-22T11:14:15.559Z,1.20
2022-09-22T11:19:47.539Z,0.80
2022-09-22T11:24:58.271Z,0.80
2022-09-22T11:30:21.649Z,0.77
2022-09-22T11:35:29.245Z,0.40
2022-09-22T11:46:47.354Z,0.40
2022-09-22T11:52:02.698Z,0.40
2022-09-22T11:57:11.198Z,0.43
2022-09-22T12:02:26.655Z,0.60
2022-09-22T12:07:37.010Z,0.50
2022-09-22T12:12:42.668Z,0.40
2022-09-22T12:17:59.698Z,0.30
2022-09-22T12:23:19.441Z,0.80
2022-09-22T12:28:28.064Z,0.50
2022-09-22T12:33:33.769Z,0.40
2022-09-22T12:38:35.597Z,0.32
2022-09-22T12:43:37.508Z,0.30
2022-09-22T12:48:39.218Z,0.30
2022-09-22T12:53:43.719Z,0.38
2022-09-22T12:58:46.058Z,0.45
2022-09-22T13:03:50.469Z,0.20
2022-09-22T13:08:54.821Z,0.40
2022-09-22T13:13:56.354Z,0.40
2022-09-22T13:18:59.554Z,0.40
2022-09-22T13:24:02.987Z,0.40
2022-09-22T13:29:17.292Z,0.40
2022-09-22T13:34:36.254Z,0.50
2022-09-22T13:39:46.926Z,0.30
2022-09-22T13:44:59.011Z,0.32
2022-09-22T13:50:06.982Z,0.30
2022-09-22T13:55:14.988Z,0.20
2022-09-22T14:00:26.408Z,0.20
2022-09-22T14:05:31.856Z,0.30
2022-09-22T14:10:34.117Z,0.30
2022-09-22T14:15:43.760Z,0.40
2022-09-22T14:20:46.776Z,0.20
2022-09-22T14:25:48.541Z,0.30
2022-09-22T14:30:51.067Z,0.50
2022-09-22T14:36:00.725Z,0.43
2022-09-22T14:41:03.143Z,0.57
2022-09-22T14:46:23.065Z,0.50
2022-09-22T14:56:59.202Z,0.40
2022-09-22T15:02:20.670Z,0.40
2022-09-22T15:07:31.473Z,0.60
2022-09-22T15:12:39.075Z,0.47
2022-09-22T15:18:01.378Z,0.45
2022-09-22T15:23:03.444Z,0.50
2022-09-22T15:28:11.186Z,0.50
2022-09-22T15:33:15.546Z,0.63
2022-09-22T15:38:21.537Z,0.50
2022-09-22T15:43:29.407Z,0.50
2022-09-22T15:48:37.017Z,0.50
2022-09-22T15:53:40.370Z,0.70
2022-09-22T15:58:43.888Z,0.52
2022-09-22T16:03:46.588Z,0.60
2022-09-22T16:08:51.462Z,0.50
2022-09-22T16:13:53.174Z,0.60
2022-09-22T16:18:58.782Z,0.50
2022-09-22T16:24:03.915Z,0.80
2022-09-22T16:29:07.582Z,1.45
2022-09-22T16:34:10.832Z,1.00
2022-09-22T16:39:12.551Z,1.52
2022-09-22T16:44:15.735Z,1.20
2022-09-22T16:49:20.072Z,0.90
2022-09-22T16:54:21.960Z,1.48
2022-09-22T16:59:23.851Z,1.10
2022-09-22T17:04:25.630Z,1.15
2022-09-22T17:09:27.422Z,1.20
2022-09-22T17:14:30.480Z,1.50
2022-09-22T17:19:32.891Z,1.30
2022-09-22T17:24:34.537Z,1.98
2022-09-22T17:29:36.292Z,2.55
2022-09-22T17:34:38.499Z,3.72
2022-09-22T17:39:40.190Z,2.92
2022-09-22T17:44:41.865Z,2.58
2022-09-22T17:50:02.065Z,2.15
2022-09-22T17:55:11.761Z,2.58
2022-09-22T18:00:17.187Z,3.10
2022-09-22T18:05:21.417Z,5.80
2022-09-22T18:10:26.317Z,3.72
2022-09-22T18:15:29.281Z,3.05
2022-09-22T18:20:32.026Z,3.38
2022-09-22T18:25:34.125Z,3.72
2022-09-22T18:30:36.601Z,4.32
2022-09-22T18:35:38.192Z,4.10
2022-09-22T18:40:41.200Z,4.20
2022-09-22T18:45:43.357Z,4.57
2022-09-22T18:50:45.868Z,3.80
2022-09-22T18:55:48.429Z,4.85
2022-09-22T19:00:52.058Z,4.70
2022-09-22T19:05:53.637Z,5.30
2022-09-22T19:10:55.170Z,4.63
2022-09-22T19:15:58.750Z,4.68
2022-09-22T19:21:03.762Z,5.97
2022-09-22T19:26:05.913Z,5.85
2022-09-22T19:51:37.501Z,8.25
2022-09-22T19:57:18.443Z,7.30
2022-09-22T20:02:27.687Z,5.90
2022-09-22T20:07:29.417Z,6.53
2022-09-22T20:12:31.054Z,6.47
2022-09-22T20:17:32.792Z,6.07
2022-09-22T20:22:35.858Z,6.28
2022-09-22T20:27:41.209Z,6.57
2022-09-22T20:33:38.028Z,6.85
2022-09-22T20:39:02.699Z,6.45
2022-09-22T20:52:29.241Z,5.55
2022-09-22T20:58:17.363Z,5.60
2022-09-22T22:48:36.579Z,5.90
2022-09-22T22:53:38.628Z,5.28
2022-09-22T22:58:41.675Z,4.80
2022-09-22T23:03:49.239Z,5.10
2022-09-22T23:08:52.094Z,4.82
2022-09-22T23:13:56.243Z,4.75
2022-09-22T23:18:59.717Z,5.30
2022-09-22T23:24:03.656Z,4.53
2022-09-22T23:29:06.794Z,4.25
2022-09-22T23:34:08.610Z,4.68
2022-09-22T23:39:11.611Z,5.15
2022-09-22T23:44:13.623Z,4.95
2022-09-22T23:49:15.212Z,4.47
2022-09-22T23:54:16.751Z,4.53
2022-09-22T23:59:18.280Z,4.13
